Time;durP1;ratioP1;P1;durP2;ratioP2;P2;SDS_P1;SDS_P2;PMS_P1;PMS_P2;Temp;Humidity;BMP_temperature;BMP_pressure;BME280_temperature;BME280_humidity;BME280_pressure;Samples;Min_cycle;Max_cycle;Signal;HPM_P1;HPM_P2
2023/04/05 00:01:20;;;;;;;38.25;15.93;;;;;;;0.05;76.89;100237.50;5053688;28;20477;-78
2023/04/05 00:03:46;;;;;;;28.98;15.30;;;;;;;0.30;76.60;100273.47;5053741;28;20033;-78
2023/04/05 00:06:11;;;;;;;32.13;14.75;;;;;;;0.17;76.50;100258.03;5053549;28;20447;-78
2023/04/05 00:08:37;;;;;;;33.10;13.20;;;;;;;0.02;76.12;100234.91;5053724;28;20040;-78
2023/04/05 00:11:02;;;;;;;30.77;13.63;;;;;;;0.25;76.45;100270.88;5053528;28;20021;-78
2023/04/05 00:13:28;;;;;;;29.92;13.93;;;;;;;0.20;75.84;100262.31;5053401;28;20032;-78
2023/04/05 00:15:56;;;;;;;25.60;12.75;;;;;;;0.32;75.59;100277.75;5053376;28;20045;-78
2023/04/05 00:18:22;;;;;;;24.35;12.27;;;;;;;0.30;75.69;100274.34;5053358;28;20024;-78
2023/04/05 00:20:49;;;;;;;30.40;12.82;;;;;;;0.31;75.16;100275.19;5053545;28;20064;-78
2023/04/05 00:23:16;;;;;;;22.67;12.75;;;;;;;0.27;75.52;100271.75;5053140;28;20103;-78
2023/04/05 00:25:42;;;;;;;23.98;11.07;;;;;;;0.16;75.57;100250.34;5053317;28;20025;-78
2023/04/05 00:28:08;;;;;;;21.90;11.38;;;;;;;0.21;75.44;100253.78;5052687;28;20045;-78
2023/04/05 00:30:33;;;;;;;24.23;12.57;;;;;;;0.10;75.81;100238.38;5053328;28;20496;-77
2023/04/05 00:32:58;;;;;;;24.13;11.60;;;;;;;0.09;75.52;100234.09;5053625;28;20060;-78
2023/04/05 00:35:29;;;;;;;24.80;10.45;;;;;;;0.24;75.55;100259.78;5052950;28;20027;-78
2023/04/05 00:37:55;;;;;;;21.90;11.52;;;;;;;0.21;75.69;100252.09;5053184;28;20032;-78
2023/04/05 00:40:21;;;;;;;22.25;11.77;;;;;;;0.16;74.90;100248.63;5052804;28;20025;-78
2023/04/05 00:42:47;;;;;;;24.38;12.88;;;;;;;0.14;75.94;100254.59;5052931;28;20036;-78
2023/04/05 00:45:12;;;;;;;23.90;11.60;;;;;;;-0.06;75.15;100227.16;5052593;28;20025;-78
2023/04/05 00:47:40;;;;;;;24.67;11.63;;;;;;;-0.19;76.19;100219.41;5053031;28;20025;-78
2023/04/05 00:50:07;;;;;;;24.88;13.20;;;;;;;0.02;76.15;100260.50;5053151;28;20090;-78
2023/04/05 00:52:34;;;;;;;21.67;11.20;;;;;;;-0.11;76.14;100238.25;5052406;28;20491;-78
2023/04/05 00:54:59;;;;;;;21.45;11.07;;;;;;;-0.11;76.97;100235.69;5051355;28;20435;-78
2023/04/05 00:57:25;;;;;;;20.92;10.45;;;;;;;0.05;76.92;100264.81;5052527;28;20033;-77
2023/04/05 00:59:50;;;;;;;23.85;11.60;;;;;;;0.01;76.24;100252.84;5053027;28;20132;-78
2023/04/05 01:02:18;;;;;;;21.83;11.65;;;;;;;-0.13;76.18;100230.53;5052371;28;20078;-78
2023/04/05 01:04:48;;;;;;;21.33;10.00;;;;;;;-0.15;76.58;100229.69;5051343;28;20406;-77
2023/04/05 01:07:28;;;;;;;23.17;11.43;;;;;;;-0.02;76.41;100254.50;5052231;28;20481;-78
2023/04/05 01:09:58;;;;;;;24.20;12.45;;;;;;;-0.24;75.90;100221.09;5052688;28;20024;-78
2023/04/05 01:12:31;;;;;;;22.58;11.00;;;;;;;-0.08;76.09;100263.88;5052413;28;20033;-78
2023/04/05 01:14:57;;;;;;;20.30;11.15;;;;;;;-0.12;77.78;100259.59;5052368;28;20021;-78
2023/04/05 01:17:27;;;;;;;23.48;12.18;;;;;;;-0.30;77.36;100229.56;5052157;28;20029;-78
2023/04/05 01:19:58;;;;;;;21.08;10.88;;;;;;;-0.14;78.05;100258.69;5052321;28;20032;-78
2023/04/05 01:22:42;;;;;;;22.40;11.52;;;;;;;-0.14;77.93;100256.13;5051948;28;20033;-78
2023/04/05 01:25:18;;;;;;;22.67;11.02;;;;;;;-0.17;77.53;100245.88;5052447;28;20108;-78
2023/04/05 01:28:02;;;;;;;20.45;10.85;;;;;;;-0.17;78.08;100248.44;5052350;28;20388;-78
2023/04/05 01:30:38;;;;;;;19.70;10.80;;;;;;;-0.33;77.26;100211.66;5051837;28;20111;-78
2023/04/05 01:33:19;;;;;;;20.95;11.77;;;;;;;-0.10;77.69;100237.38;5052503;28;20034;-78
2023/04/05 01:35:57;;;;;;;20.38;10.77;;;;;;;-0.05;77.49;100240.81;5052064;28;20017;-78
2023/04/05 01:38:24;;;;;;;21.23;11.13;;;;;;;-0.15;77.66;100214.31;5051140;28;20028;-78
2023/04/05 01:40:50;;;;;;;21.63;11.43;;;;;;;-0.24;77.16;100182.69;5052003;28;20435;-78
2023/04/05 01:43:16;;;;;;;23.50;11.75;;;;;;;-0.02;77.79;100212.69;5051918;28;20055;-78
2023/04/05 01:45:44;;;;;;;21.42;11.20;;;;;;;0.00;77.16;100205.88;5051917;28;20476;-77
2023/04/05 01:48:10;;;;;;;19.85;10.75;;;;;;;0.05;77.37;100222.13;5052018;28;20043;-78
2023/04/05 01:50:35;;;;;;;24.88;11.75;;;;;;;0.01;77.63;100220.38;5051614;28;20104;-78
2023/04/05 01:53:00;;;;;;;19.95;11.30;;;;;;;0.08;77.57;100234.91;5051918;28;20525;-78
2023/04/05 01:55:26;;;;;;;22.38;10.30;;;;;;;-0.03;77.49;100221.22;5051525;28;20031;-78
2023/04/05 01:57:54;;;;;;;19.00;11.13;;;;;;;0.01;78.24;100205.03;5051585;28;20032;-78
2023/04/05 02:00:20;;;;;;;20.73;11.07;;;;;;;0.18;77.73;100225.59;5051728;28;20048;-78
2023/04/05 02:02:45;;;;;;;25.98;12.73;;;;;;;0.20;77.81;100221.31;5051921;28;20472;-78
2023/04/05 02:05:11;;;;;;;26.45;12.02;;;;;;;0.18;77.34;100210.22;5051848;28;20070;-78
2023/04/05 02:07:36;;;;;;;25.38;11.50;;;;;;;0.28;76.98;100224.78;5051549;28;20033;-78
2023/04/05 02:10:01;;;;;;;24.08;11.55;;;;;;;-0.31;77.50;100128.06;5051993;28;20017;-78
2023/04/05 02:12:27;;;;;;;22.38;11.48;;;;;;;0.23;77.68;100211.94;5051449;28;20040;-78
2023/04/05 02:14:52;;;;;;;23.45;12.82;;;;;;;0.11;77.12;100191.41;5051917;28;20063;-78
2023/04/05 02:17:17;;;;;;;23.00;13.38;;;;;;;0.08;77.65;100195.66;5051768;28;20385;-78
2023/04/05 02:19:44;;;;;;;32.15;15.20;;;;;;;0.17;78.14;100217.06;5051729;28;20055;-78
2023/04/05 02:22:10;;;;;;;28.23;14.73;;;;;;;-0.03;78.26;100199.03;5051623;28;20032;-77
2023/04/05 02:24:35;;;;;;;25.98;12.02;;;;;;;-0.10;78.44;100181.06;5051277;28;20033;-78
2023/04/05 02:27:01;;;;;;;27.45;13.23;;;;;;;0.02;78.53;100211.84;5051136;28;20473;-78
2023/04/05 02:29:26;;;;;;;19.75;11.85;;;;;;;-0.04;78.98;100193.91;5051423;28;20389;-78
2023/04/05 02:31:52;;;;;;;25.05;13.00;;;;;;;-0.09;79.47;100188.75;5051584;28;20115;-78
2023/04/05 02:34:17;;;;;;;23.15;12.13;;;;;;;-0.14;79.90;100187.88;5051173;28;20377;-78
2023/04/05 02:36:43;;;;;;;21.88;13.02;;;;;;;-0.17;80.26;100182.75;5051474;28;20025;-78
2023/04/05 02:39:08;;;;;;;27.38;13.05;;;;;;;-0.16;80.10;100179.34;5051448;28;20025;-78
2023/04/05 02:41:35;;;;;;;34.38;15.70;;;;;;;-0.16;80.19;100170.81;5051342;28;20406;-78
2023/04/05 02:44:00;;;;;;;30.55;16.60;;;;;;;-0.14;79.14;100174.22;5051761;28;20035;-78
2023/04/05 02:46:25;;;;;;;29.00;15.95;;;;;;;-0.02;79.07;100187.94;5051530;28;20028;-78
2023/04/05 02:48:51;;;;;;;28.98;16.70;;;;;;;-0.17;79.56;100158.81;5051438;28;20032;-78
2023/04/05 02:51:16;;;;;;;27.45;16.73;;;;;;;-0.04;80.27;100178.53;5054532;28;20606;-78
2023/04/05 02:53:43;;;;;;;33.35;17.08;;;;;;;-0.16;80.52;100156.28;5054940;28;20021;-78
2023/04/05 02:56:10;;;;;;;33.05;17.35;;;;;;;-0.15;80.80;100155.44;5055126;28;20119;-77
2023/04/05 02:58:36;;;;;;;28.02;15.32;;;;;;;0.04;80.33;100178.56;5054880;28;20043;-78
2023/04/05 03:01:05;;;;;;;29.98;16.00;;;;;;;-0.07;80.14;100150.34;5055026;28;20017;-78
2023/04/05 03:03:33;;;;;;;31.83;17.35;;;;;;;0.13;80.52;100182.03;5054765;28;20033;-78
2023/04/05 03:06:06;;;;;;;34.03;15.88;;;;;;;0.10;81.52;100176.88;5054737;28;20032;-78
2023/04/05 03:08:31;;;;;;;28.33;16.38;;;;;;;-0.20;81.53;100131.53;5054380;28;20028;-78
2023/04/05 03:10:56;;;;;;;30.88;16.48;;;;;;;-0.09;82.17;100145.22;5054600;28;20377;-78
2023/04/05 03:13:22;;;;;;;30.30;15.93;;;;;;;0.09;81.81;100166.66;5054585;28;20032;-78
2023/04/05 03:15:47;;;;;;;37.30;17.83;;;;;;;0.12;81.50;100182.88;5054759;28;20036;-75
2023/04/05 03:18:12;;;;;;;30.85;17.17;;;;;;;0.01;81.16;100171.72;5054565;28;20118;-78
2023/04/05 03:20:39;;;;;;;28.88;15.93;;;;;;;0.02;81.97;100167.47;5054322;28;20425;-78
2023/04/05 03:23:10;;;;;;;31.75;17.33;;;;;;;0.05;82.19;100180.28;5054781;28;20033;-78
2023/04/05 03:25:36;;;;;;;28.42;17.52;;;;;;;0.04;82.24;100181.13;5054366;28;20029;-78
2023/04/05 03:28:07;;;;;;;31.73;17.58;;;;;;;-0.06;82.34;100160.59;5054628;28;20044;-78
2023/04/05 03:30:33;;;;;;;33.80;17.85;;;;;;;0.04;81.81;100181.13;5054270;28;20035;-78
2023/04/05 03:33:00;;;;;;;32.47;19.00;;;;;;;-0.06;82.25;100173.41;5054367;28;20028;-78
2023/04/05 03:35:27;;;;;;;31.60;17.98;;;;;;;-0.01;82.67;100173.41;5053952;28;20111;-78
2023/04/05 03:37:53;;;;;;;28.60;17.23;;;;;;;0.04;82.80;100183.69;5054142;28;20489;-78
2023/04/05 03:40:18;;;;;;;32.92;16.65;;;;;;;-0.14;82.20;100158.84;5054341;28;20112;-77
2023/04/05 03:42:44;;;;;;;32.92;17.50;;;;;;;0.03;82.51;100187.09;5054251;28;20025;-78
2023/04/05 03:45:09;;;;;;;35.25;18.98;;;;;;;0.02;82.69;100182.84;5054148;28;20040;-78
2023/04/05 03:47:36;;;;;;;32.10;17.55;;;;;;;0.02;83.03;100180.28;5053820;28;20380;-78
2023/04/05 03:50:02;;;;;;;52.70;27.23;;;;;;;0.00;83.91;100182.84;5053955;28;20079;-78
2023/04/05 03:52:27;;;;;;;60.55;31.83;;;;;;;-0.14;83.14;100153.72;5053656;28;20082;-78
2023/04/05 03:54:53;;;;;;;53.83;30.50;;;;;;;-0.21;83.22;100152.88;5053990;28;20415;-78
2023/04/05 03:57:18;;;;;;;53.67;29.25;;;;;;;-0.11;83.06;100176.78;5054304;28;20648;-78
2023/04/05 03:59:43;;;;;;;51.13;26.23;;;;;;;-0.27;83.77;100157.94;5053443;28;20021;-78
2023/04/05 04:02:09;;;;;;;48.58;26.35;;;;;;;-0.20;83.94;100167.38;5053042;28;20029;-78
2023/04/05 04:04:34;;;;;;;44.88;24.80;;;;;;;-0.38;83.18;100152.78;5053533;28;20033;-78
2023/04/05 04:06:59;;;;;;;44.10;24.98;;;;;;;-0.39;83.39;100151.03;5053522;28;20025;-78
2023/04/05 04:09:26;;;;;;;47.53;25.38;;;;;;;-0.29;83.89;100180.13;5053735;28;20023;-78
2023/04/05 04:11:52;;;;;;;43.25;24.15;;;;;;;-0.52;83.65;100152.66;5053763;28;20025;-78
2023/04/05 04:14:17;;;;;;;54.63;26.95;;;;;;;-0.41;83.30;100182.59;5053550;28;20025;-78
2023/04/05 04:16:42;;;;;;;53.20;26.02;;;;;;;-0.45;83.81;100181.72;5053262;28;20029;-78
2023/04/05 04:19:08;;;;;;;49.22;25.55;;;;;;;-0.59;83.44;100158.59;5053767;28;20064;-78
2023/04/05 04:21:34;;;;;;;53.13;28.08;;;;;;;-0.64;83.65;100157.69;5053087;28;20161;-78
2023/04/05 04:23:59;;;;;;;52.90;28.40;;;;;;;-0.51;84.18;100181.66;5053573;28;20028;-77
2023/04/05 04:26:28;;;;;;;60.90;31.52;;;;;;;-0.70;83.63;100156.81;5053038;28;20043;-77
2023/04/05 04:28:54;;;;;;;59.70;30.85;;;;;;;-0.70;83.50;100157.66;5052958;28;20041;-77
2023/04/05 04:31:22;;;;;;;67.50;33.72;;;;;;;-0.65;83.55;100180.72;5053128;28;20025;-78
2023/04/05 04:33:49;;;;;;;60.13;30.80;;;;;;;-0.56;83.22;100188.47;5053040;28;20461;-78
2023/04/05 04:36:16;;;;;;;64.97;32.10;;;;;;;-0.58;83.51;100197.84;5053102;28;20599;-78
2023/04/05 04:38:43;;;;;;;60.78;32.47;;;;;;;-0.62;83.93;100183.31;5053031;28;20029;-77
2023/04/05 04:41:12;;;;;;;57.35;31.73;;;;;;;-0.57;83.84;100195.28;5053480;28;20040;-77
2023/04/05 04:43:44;;;;;;;65.10;30.65;;;;;;;-0.58;83.60;100191.00;5052862;28;20029;-77
2023/04/05 04:46:13;;;;;;;50.63;27.98;;;;;;;-0.58;84.23;100201.25;5053026;28;20082;-78
2023/04/05 04:48:41;;;;;;;46.55;23.83;;;;;;;-0.65;84.60;100185.84;5052529;28;20114;-78
2023/04/05 04:51:06;;;;;;;48.28;26.48;;;;;;;-0.59;85.37;100196.09;5052895;28;20029;-78
2023/04/05 04:53:31;;;;;;;45.03;26.85;;;;;;;-0.59;85.11;100203.78;5052287;28;20040;-78
2023/04/05 04:55:56;;;;;;;53.17;31.50;;;;;;;-0.59;85.34;100198.66;5052596;28;20052;-78
2023/04/05 04:58:22;;;;;;;78.32;39.17;;;;;;;-0.53;85.96;100194.47;5052604;28;20461;-78
2023/04/05 05:00:47;;;;;;;105.80;47.03;;;;;;;-0.56;84.83;100176.50;5052317;28;20021;-78
2023/04/05 05:03:13;;;;;;;93.60;43.20;;;;;;;-0.32;84.71;100191.19;5052721;28;20047;-78
2023/04/05 05:05:42;;;;;;;100.03;44.80;;;;;;;-0.15;85.08;100193.84;5052485;28;20031;-78
2023/04/05 05:08:08;;;;;;;99.70;43.70;;;;;;;-0.07;84.59;100183.66;5052557;28;20067;-78
2023/04/05 05:10:33;;;;;;;84.43;40.83;;;;;;;0.09;84.06;100152.13;5052391;28;20052;-78
2023/04/05 05:12:58;;;;;;;82.05;38.63;;;;;;;0.53;83.14;100161.66;5052389;28;20116;-78
2023/04/05 05:15:24;;;;;;;69.28;35.88;;;;;;;1.06;82.62;100173.69;5052390;28;20020;-78
2023/04/05 05:17:52;;;;;;;58.83;30.60;;;;;;;1.52;80.59;100172.78;5052250;28;20028;-78
2023/04/05 05:20:17;;;;;;;52.80;28.15;;;;;;;1.73;79.81;100181.34;5052468;28;20049;-78
2023/04/05 05:22:43;;;;;;;54.03;28.38;;;;;;;1.72;78.64;100182.16;5052414;28;20075;-78
2023/04/05 05:25:08;;;;;;;59.60;30.00;;;;;;;1.50;79.15;100160.81;5052140;28;20070;-78
2023/04/05 05:27:34;;;;;;;87.25;42.03;;;;;;;1.14;78.48;100117.28;5051777;28;20049;-78
2023/04/05 05:30:00;;;;;;;80.50;42.67;;;;;;;1.54;79.24;100189.06;5052003;28;20082;-78
2023/04/05 05:32:25;;;;;;;68.75;37.67;;;;;;;2.03;78.97;100196.69;5051924;28;20032;-78
2023/04/05 05:34:51;;;;;;;53.15;30.55;;;;;;;2.41;77.01;100193.94;5050931;28;20052;-78
2023/04/05 05:37:16;;;;;;;49.70;28.77;;;;;;;2.48;75.93;100190.47;5052150;28;20033;-78
2023/04/05 05:39:43;;;;;;;46.30;25.58;;;;;;;2.57;75.70;100174.13;5051873;28;20024;-78
2023/04/05 05:42:09;;;;;;;49.15;23.60;;;;;;;2.33;74.88;100134.88;5051983;28;20029;-78
2023/04/05 05:44:35;;;;;;;37.33;19.23;;;;;;;2.21;75.18;100197.44;5051791;28;20021;-78
2023/04/05 05:47:01;;;;;;;29.88;17.40;;;;;;;1.85;75.87;100177.00;5051860;28;20024;-78
2023/04/05 05:49:27;;;;;;;29.27;16.88;;;;;;;1.86;76.46;100199.28;5052186;28;20376;-78
2023/04/05 05:51:52;;;;;;;41.65;17.95;;;;;;;1.47;77.66;100201.88;5051836;28;20104;-78
2023/04/05 05:54:18;;;;;;;30.08;16.50;;;;;;;1.00;79.15;100207.03;5051940;28;20048;-78
2023/04/05 05:56:43;;;;;;;35.25;16.65;;;;;;;0.70;80.54;100205.28;5051752;28;20025;-78
2023/04/05 05:59:09;;;;;;;32.50;17.17;;;;;;;0.62;82.17;100206.97;5051799;28;20029;-78
2023/04/05 06:01:41;;;;;;;35.90;19.50;;;;;;;0.24;82.43;100180.34;5051503;28;20037;-78
2023/04/05 06:04:06;;;;;;;32.80;18.52;;;;;;;0.30;83.94;100215.41;5051873;28;20029;-78
2023/04/05 06:06:32;;;;;;;41.10;20.90;;;;;;;0.12;84.59;100182.00;5051511;28;20040;-78
2023/04/05 06:08:58;;;;;;;61.30;27.70;;;;;;;0.20;84.94;100214.50;5051752;28;20520;-78
2023/04/05 06:11:24;;;;;;;70.63;29.73;;;;;;;0.03;85.29;100189.66;5051739;28;20032;-78
2023/04/05 06:13:53;;;;;;;56.25;26.92;;;;;;;0.14;85.44;100203.38;5051292;28;20036;-78
2023/04/05 06:16:19;;;;;;;42.70;22.15;;;;;;;0.15;84.98;100175.19;5051537;28;20017;-78
2023/04/05 06:18:45;;;;;;;44.00;22.35;;;;;;;0.50;84.24;100203.50;5051740;28;20116;-78
2023/04/05 06:21:10;;;;;;;47.85;23.73;;;;;;;0.58;83.58;100198.41;5051726;28;20100;-78
2023/04/05 06:23:35;;;;;;;38.38;22.35;;;;;;;0.63;83.76;100191.59;5051388;28;20036;-78
2023/04/05 06:26:01;;;;;;;41.63;22.83;;;;;;;0.77;83.45;100214.69;5054764;28;20068;-78
2023/04/05 06:28:27;;;;;;;38.50;21.83;;;;;;;0.73;84.06;100218.97;5055369;28;20488;-78
2023/04/05 06:30:56;;;;;;;39.40;21.42;;;;;;;0.57;83.88;100195.84;5055036;28;20052;-78
2023/04/05 06:33:22;;;;;;;37.80;19.73;;;;;;;0.42;84.41;100189.84;5054200;28;20483;-78
2023/04/05 06:35:47;;;;;;;34.25;17.90;;;;;;;0.50;84.43;100208.63;5055120;28;20021;-79
2023/04/05 06:38:12;;;;;;;52.53;28.70;;;;;;;0.44;84.39;100211.19;5055220;28;20029;-78
2023/04/05 06:40:38;;;;;;;39.40;23.77;;;;;;;0.56;85.37;100215.50;5047384;28;20275;-75
2023/04/05 06:43:03;;;;;;;40.95;23.88;;;;;;;0.55;86.26;100216.34;5044215;28;20024;-76
2023/04/05 06:45:28;;;;;;;35.83;20.83;;;;;;;0.49;85.17;100214.59;5045621;28;20411;-78
2023/04/05 06:47:54;;;;;;;47.42;24.33;;;;;;;0.37;86.38;100195.78;5043703;28;20382;-78
2023/04/05 06:50:19;;;;;;;42.35;23.98;;;;;;;0.46;85.99;100212.06;5044825;28;20044;-78
2023/04/05 06:52:45;;;;;;;42.97;23.42;;;;;;;0.33;85.91;100186.38;5043931;28;20120;-78
2023/04/05 06:55:10;;;;;;;40.30;21.98;;;;;;;0.29;85.95;100185.50;5043456;28;20100;-78
2023/04/05 06:57:35;;;;;;;46.15;22.63;;;;;;;0.44;85.97;100223.13;5044967;28;20017;-78
2023/04/05 07:00:01;;;;;;;44.78;25.13;;;;;;;0.47;87.11;100218.88;5044550;28;20041;-78
2023/04/05 07:02:26;;;;;;;61.95;28.95;;;;;;;0.44;87.28;100207.75;5042588;28;20033;-78
2023/04/05 07:04:52;;;;;;;69.20;30.08;;;;;;;0.56;87.17;100214.66;5045329;28;20040;-78
2023/04/05 07:07:17;;;;;;;64.55;29.35;;;;;;;0.62;87.71;100217.22;5042860;28;20108;-78
2023/04/05 07:09:43;;;;;;;70.43;29.85;;;;;;;0.54;87.78;100219.75;5034653;28;20105;-78
2023/04/05 07:12:08;;;;;;;63.83;28.83;;;;;;;0.50;87.60;100224.00;5034860;28;20038;-75
2023/04/05 07:14:36;;;;;;;376.00;173.80;;;;;;;0.50;87.39;100228.28;5034298;28;20029;-75
2023/04/05 07:17:05;;;;;;;320.35;154.90;;;;;;;0.53;88.30;100230.84;5034777;28;20021;-75
2023/04/05 07:19:31;;;;;;;73.60;38.20;;;;;;;0.61;88.24;100221.47;5034713;28;20032;-75
2023/04/05 07:21:58;;;;;;;66.35;38.30;;;;;;;1.10;87.20;100210.47;5034501;28;20033;-78
2023/04/05 07:24:23;;;;;;;45.78;25.33;;;;;;;0.90;86.95;100187.38;5034660;28;20116;-78
2023/04/05 07:26:48;;;;;;;58.97;34.22;;;;;;;0.91;87.37;100205.31;5034215;28;20116;-78
2023/04/05 07:29:14;;;;;;;52.88;30.38;;;;;;;1.25;88.11;100208.75;5034129;28;20056;-78
2023/04/05 07:31:40;;;;;;;45.45;22.50;;;;;;;1.52;86.38;100203.59;5034195;28;20026;-78
2023/04/05 07:34:05;;;;;;;40.63;20.73;;;;;;;1.46;85.13;100200.19;5034410;28;20032;-78
2023/04/05 07:36:31;;;;;;;36.20;19.15;;;;;;;1.52;84.68;100188.19;5033230;28;20036;-78
2023/04/05 07:38:56;;;;;;;39.33;19.85;;;;;;;1.93;83.93;100177.84;5034016;28;20040;-78
2023/04/05 07:41:25;;;;;;;42.05;21.42;;;;;;;2.08;82.59;100202.66;5034135;28;20030;-78
2023/04/05 07:43:50;;;;;;;33.55;18.77;;;;;;;1.87;83.63;100199.28;5033706;28;20079;-78
2023/04/05 07:46:16;;;;;;;36.92;17.75;;;;;;;2.11;82.39;100152.09;5034559;28;20025;-78
2023/04/05 07:48:41;;;;;;;30.70;16.25;;;;;;;2.43;81.02;100197.34;5033855;28;20033;-78
2023/04/05 07:51:08;;;;;;;39.33;18.00;;;;;;;2.34;81.68;100171.69;5034059;28;20029;-78
2023/04/05 07:53:35;;;;;;;34.45;18.58;;;;;;;3.28;81.96;100174.50;5033722;28;20477;-78
2023/04/05 07:56:08;;;;;;;36.17;18.27;;;;;;;4.32;77.66;100184.56;5033807;28;20056;-78
2023/04/05 07:58:34;;;;;;;35.80;18.88;;;;;;;4.78;75.12;100186.53;5034487;28;20043;-78
2023/04/05 08:01:03;;;;;;;30.10;17.73;;;;;;;5.11;74.81;100161.94;5033987;28;20025;-78
2023/04/05 08:03:29;;;;;;;38.03;24.42;;;;;;;7.11;71.03;100171.75;5033752;28;20037;-78
2023/04/05 08:05:55;;;;;;;30.55;22.65;;;;;;;8.40;65.32;100153.63;5033521;28;20428;-78
2023/04/05 08:08:21;;;;;;;55.05;43.35;;;;;;;8.07;63.87;100125.13;5033918;28;20022;-78
2023/04/05 08:10:47;;;;;;;43.72;29.08;;;;;;;9.34;62.21;100173.16;5033580;28;20091;-78
2023/04/05 08:13:12;;;;;;;31.05;18.80;;;;;;;8.11;61.85;100162.22;5033607;28;20030;-78
2023/04/05 08:15:39;;;;;;;33.30;21.60;;;;;;;6.58;65.87;100163.50;5033323;28;20428;-75
2023/04/05 08:18:05;;;;;;;32.17;19.83;;;;;;;6.89;67.59;100174.00;5033674;28;20029;-75
2023/04/05 08:20:30;;;;;;;25.25;15.23;;;;;;;7.09;66.62;100171.78;5032019;28;20044;-75
2023/04/05 08:22:55;;;;;;;27.05;15.57;;;;;;;6.86;67.00;100161.94;5033228;28;20022;-77
2023/04/05 08:25:21;;;;;;;24.85;14.57;;;;;;;6.86;66.77;100174.06;5033382;28;20059;-76
2023/04/05 08:27:46;;;;;;;28.23;14.00;;;;;;;7.39;65.67;100159.81;5033109;28;20045;-76
2023/04/05 08:30:12;;;;;;;22.48;13.25;;;;;;;6.63;65.78;100156.47;5033418;28;20022;-76
2023/04/05 08:32:37;;;;;;;25.30;12.07;;;;;;;6.08;67.77;100180.91;5033190;28;20022;-77
2023/04/05 08:35:03;;;;;;;22.33;12.95;;;;;;;6.68;66.44;100162.38;5033332;28;20025;-77
2023/04/05 08:37:28;;;;;;;24.02;12.73;;;;;;;6.21;67.08;100183.22;5033229;28;20033;-77
2023/04/05 08:39:54;;;;;;;56.95;37.03;;;;;;;5.73;68.74;100182.38;5032824;28;20508;-77
2023/04/05 08:42:28;;;;;;;89.20;70.50;;;;;;;6.10;68.83;100182.56;5033380;28;20037;-77
2023/04/05 08:44:56;;;;;;;44.10;29.38;;;;;;;6.23;68.54;100181.44;5033092;28;20056;-77
2023/04/05 08:47:22;;;;;;;35.35;18.40;;;;;;;6.12;69.21;100152.38;5032967;28;20029;-77
2023/04/05 08:49:48;;;;;;;26.05;14.65;;;;;;;6.21;69.12;100162.53;5032773;28;20476;-77
2023/04/05 08:52:13;;;;;;;24.10;12.77;;;;;;;6.80;67.02;100159.53;5032883;28;20069;-77
2023/04/05 08:54:39;;;;;;;20.98;10.85;;;;;;;6.90;66.83;100162.75;5032533;28;20036;-77
2023/04/05 08:57:09;;;;;;;16.38;9.40;;;;;;;6.68;66.63;100173.59;5032967;28;20040;-77
2023/04/05 08:59:41;;;;;;;16.73;10.02;;;;;;;7.19;65.07;100156.88;5052089;28;20563;-77
2023/04/05 09:02:17;;;;;;;26.35;11.95;;;;;;;7.20;64.81;100155.97;5052697;28;20025;-76
2023/04/05 09:04:44;;;;;;;22.80;12.98;;;;;;;6.79;65.33;100138.84;5052250;28;20108;-76
2023/04/05 09:07:12;;;;;;;21.40;11.93;;;;;;;7.37;64.23;100158.97;5052721;28;20431;-78
2023/04/05 09:09:41;;;;;;;23.02;12.60;;;;;;;7.01;63.94;100163.34;5052720;28;20017;-76
2023/04/05 09:12:06;;;;;;;20.42;11.40;;;;;;;6.29;65.65;100146.84;5052547;28;20040;-76
2023/04/05 09:14:37;;;;;;;16.45;9.25;;;;;;;6.35;65.75;100159.63;5052426;28;20381;-76
2023/04/05 09:17:03;;;;;;;17.10;9.75;;;;;;;6.32;66.08;100170.06;5052083;28;20033;-76
2023/04/05 09:19:28;;;;;;;19.50;11.02;;;;;;;5.69;68.91;100165.25;5052255;28;20029;-78
2023/04/05 09:22:01;;;;;;;15.27;9.88;;;;;;;5.55;69.31;100167.22;5052527;28;20025;-78
2023/04/05 09:24:31;;;;;;;13.80;8.25;;;;;;;5.70;67.68;100139.38;5052465;28;20473;-78
2023/04/05 09:27:13;;;;;;;20.15;7.90;;;;;;;5.33;67.74;100167.59;5051890;28;20048;-79
2023/04/05 09:29:44;;;;;;;12.45;7.63;;;;;;;5.21;68.87;100162.63;5052199;28;20814;-78
2023/04/05 09:32:11;;;;;;;13.65;8.95;;;;;;;5.65;67.42;100127.44;5052391;28;20039;-76
2023/04/05 09:34:37;;;;;;;11.27;6.65;;;;;;;5.80;67.21;100165.03;5052176;28;20128;-76
2023/04/05 09:37:15;;;;;;;20.70;10.70;;;;;;;5.59;65.75;100163.69;5052002;28;20103;-76
2023/04/05 09:39:41;;;;;;;11.27;6.38;;;;;;;6.04;65.31;100143.06;5051923;28;20064;-76
2023/04/05 09:42:06;;;;;;;24.70;19.92;;;;;;;5.97;64.98;100153.50;5052042;28;20029;-76
2023/04/05 09:44:55;;;;;;;20.45;12.70;;;;;;;5.61;65.80;100157.63;5051827;28;20036;-76
2023/04/05 09:47:23;;;;;;;15.23;6.82;;;;;;;5.79;66.42;100158.16;5051987;28;20025;-76
2023/04/05 09:49:49;;;;;;;11.38;6.35;;;;;;;5.87;65.68;100145.94;5051745;28;20032;-76
2023/04/05 09:52:20;;;;;;;11.55;6.55;;;;;;;5.64;65.48;100147.22;5051882;28;20433;-77
2023/04/05 09:54:45;;;;;;;13.52;8.48;;;;;;;5.57;66.79;100132.72;5051465;28;20116;-77
2023/04/05 09:57:15;;;;;;;10.18;7.22;;;;;;;6.12;65.36;100151.53;5052045;28;20112;-77
2023/04/05 09:59:40;;;;;;;17.55;8.98;;;;;;;5.75;65.91;100150.47;5051373;28;20048;-77
2023/04/05 10:02:06;;;;;;;12.07;7.18;;;;;;;5.47;66.95;100126.00;5051847;28;20021;-78
2023/04/05 10:04:40;;;;;;;10.90;5.97;;;;;;;6.16;65.77;100150.56;5051924;28;20036;-78
2023/04/05 10:07:14;;;;;;;10.40;6.40;;;;;;;5.81;65.65;100139.16;5051524;28;20040;-77
2023/04/05 10:09:40;;;;;;;12.40;7.63;;;;;;;5.53;66.29;100114.72;5051624;28;20045;-76
2023/04/05 10:12:07;;;;;;;12.45;7.50;;;;;;;6.27;65.83;100133.06;5051407;28;20032;-77
2023/04/05 10:14:34;;;;;;;62.95;42.00;;;;;;;6.39;64.67;100138.00;5051659;28;20056;-77
2023/04/05 10:17:22;;;;;;;16.67;9.73;;;;;;;6.15;65.57;100125.56;5051434;28;20051;-77
2023/04/05 10:20:01;;;;;;;14.50;9.00;;;;;;;6.53;64.84;100111.84;5051637;28;20029;-77
2023/04/05 10:22:41;;;;;;;13.10;7.75;;;;;;;6.55;65.22;100116.97;5051768;28;20025;-76
2023/04/05 10:25:19;;;;;;;15.77;8.68;;;;;;;6.18;65.13;100117.75;5051224;28;20135;-76
2023/04/05 10:27:53;;;;;;;11.70;7.63;;;;;;;6.41;64.82;100125.88;5051077;28;20049;-76
2023/04/05 10:30:19;;;;;;;11.55;7.55;;;;;;;6.31;64.60;100111.44;5051393;28;20029;-77
2023/04/05 10:32:47;;;;;;;9.65;7.50;;;;;;;6.08;66.02;100142.13;5051271;28;20465;-76
2023/04/05 10:35:19;;;;;;;11.05;6.70;;;;;;;5.89;67.03;100136.41;5051358;28;20021;-76
2023/04/05 10:38:16;;;;;;;13.18;8.25;;;;;;;5.87;66.63;100140.78;5051270;28;20334;-76
2023/04/05 10:40:46;;;;;;;12.50;8.30;;;;;;;5.37;70.50;100132.22;5050830;28;20037;-77
2023/04/05 10:43:16;;;;;;;13.82;8.43;;;;;;;5.57;69.64;100129.31;5051542;28;20033;-77
2023/04/05 10:45:43;;;;;;;12.82;8.05;;;;;;;5.97;68.12;100116.47;5051302;28;20032;-76
2023/04/05 10:48:43;;;;;;;14.05;8.77;;;;;;;5.72;68.65;100126.41;5051185;28;20033;-76
2023/04/05 10:51:10;;;;;;;15.98;9.80;;;;;;;5.79;69.27;100109.06;5050968;28;20475;-76
2023/04/05 10:53:36;;;;;;;14.43;8.23;;;;;;;6.27;67.20;100096.88;5051439;28;20036;-76
2023/04/05 10:56:02;;;;;;;55.05;29.70;;;;;;;6.28;68.55;100111.53;5050881;28;20477;-76
2023/04/05 10:58:28;;;;;;;36.05;21.58;;;;;;;6.24;68.89;100109.88;5051371;28;20071;-76
2023/04/05 11:00:55;;;;;;;11.48;6.78;;;;;;;6.71;68.41;100126.09;5051104;28;20108;-76
2023/04/05 11:03:48;;;;;;;8.95;5.63;;;;;;;6.30;69.99;100121.81;5051283;28;20029;-76
2023/04/05 11:06:26;;;;;;;10.23;5.68;;;;;;;5.96;71.43;100125.13;5051297;28;20025;-76
2023/04/05 11:08:55;;;;;;;7.05;4.78;;;;;;;6.44;71.50;100117.19;5051124;28;20025;-76
2023/04/05 11:11:22;;;;;;;8.05;4.70;;;;;;;6.24;71.17;100086.59;5051847;28;20017;-76
2023/04/05 11:13:55;;;;;;;7.57;4.63;;;;;;;6.34;72.30;100120.88;5054515;28;20052;-76
2023/04/05 11:16:23;;;;;;;10.07;5.00;;;;;;;6.80;72.42;100123.28;5052585;28;20079;-77
2023/04/05 11:18:51;;;;;;;6.30;4.57;;;;;;;7.30;70.57;100103.03;5053887;28;20534;-77